Dewdrop, Louisiana
Current Conditions -  °F | °C
As of 7:35 AM on Friday 24 Oct 2014 (Local Time) from KBQP Reporting Station
Haze Haze  
Wind Chill: 42°   Ceiling: Unl
Heat Index: 42°   Visibility: 4mi
Dew Point: 41°   Wind: 0mph
Humidity: 98%   Direction: NA
Pressure: 30.17"   Gusts: NA
Location:  32.8721°N, 91.912°W
Report Text: KBQP 241235Z AUTO 00000KT 4SM BR CLR 05/05 A3017 RMK AO2 T00530050
Loading
Personal Weather Stations






























Interactive Weather Map
Tropical Storm Tracking
New forecast layout! Learn more

10-Day Weather Forecast

Advertisements
Track Severe Weather on mobile